Time;durP1;ratioP1;P1;durP2;ratioP2;P2;SDS_P1;SDS_P2;PMS_P1;PMS_P2;Temp;Humidity;BMP_temperature;BMP_pressure;BME280_temperature;BME280_humidity;BME280_pressure;Samples;Min_cycle;Max_cycle;Signal;HPM_P1;HPM_P2
2023/10/11 00:00:38;;;;;;;;;;;;;;;16.06;89.12;101325.84;5115618;28;19911;-51
2023/10/11 00:03:32;;;;;;;;;;;;;;;16.05;89.47;101312.00;5115384;28;19914;-51
2023/10/11 00:05:59;;;;;;;;;;;;;;;16.03;88.79;101313.69;5114880;28;20037;-50
2023/10/11 00:08:27;;;;;;;;;;;;;;;16.04;89.09;101306.78;5115131;28;19916;-50
2023/10/11 00:10:55;;;;;;;;;;;;;;;16.02;88.85;101313.69;5114481;28;19916;-51
2023/10/11 00:13:21;;;;;;;;;;;;;;;16.01;88.78;101320.63;5114074;28;20275;-50
2023/10/11 00:15:50;;;;;;;;;;;;;;;15.98;88.48;101312.75;5115183;28;20351;-51
2023/10/11 00:18:19;;;;;;;;;;;;;;;15.97;88.84;101321.38;5114401;28;20002;-50
2023/10/11 00:23:11;;;;;;;;;;;;;;;15.92;89.02;101312.66;5115313;28;19907;-51
2023/10/11 00:25:36;;;;;;;;;;;;;;;15.89;88.81;101307.41;5114257;28;19918;-51
2023/10/11 00:28:01;;;;;;;;;;;;;;;15.88;88.71;101305.66;5114938;28;19916;-50
2023/10/11 00:30:29;;;;;;;;;;;;;;;15.84;88.63;101299.56;5114508;28;19907;-51
2023/10/11 00:32:55;;;;;;;;;;;;;;;15.84;89.28;101304.78;5114223;28;19912;-52
2023/10/11 00:35:24;;;;;;;;;;;;;;;15.82;89.25;101310.78;5114760;28;20009;-50
2023/10/11 00:37:54;;;;;;;;;;;;;;;15.78;89.75;101305.50;5114790;28;20363;-50
2023/10/11 00:40:27;;;;;;;;;;;;;;;15.73;89.61;101311.47;5113777;28;19911;-51
2023/10/11 00:42:53;;;;;;;;;;;;;;;15.70;89.50;101307.13;5114712;28;19934;-50
2023/10/11 00:45:21;;;;;;;;;;;;;;;15.68;89.35;101311.41;5114670;28;19912;-50
2023/10/11 00:47:50;;;;;;;;;;;;;;;15.69;89.67;101310.56;5113984;28;19914;-51
2023/10/11 00:50:16;;;;;;;;;;;;;;;15.69;89.24;101307.97;5114198;28;19912;-51
2023/10/11 00:52:42;;;;;;;;;;;;;;;15.69;89.61;101305.34;5114692;28;19988;-50
2023/10/11 00:55:16;;;;;;;;;;;;;;;15.68;90.12;101302.75;5113757;28;19908;-52
2023/10/11 00:57:42;;;;;;;;;;;;;;;15.61;89.77;101300.03;5114361;28;19916;-51
2023/10/11 01:00:12;;;;;;;;;;;;;;;15.61;90.07;101301.78;5114668;28;19911;-51
2023/10/11 01:02:38;;;;;;;;;;;;;;;15.59;90.31;101298.25;5113806;28;19911;-50
2023/10/11 01:05:06;;;;;;;;;;;;;;;15.57;90.47;101292.16;5114583;28;19937;-50
2023/10/11 01:07:31;;;;;;;;;;;;;;;15.54;90.59;101292.13;5113248;28;19955;-49
2023/10/11 01:09:57;;;;;;;;;;;;;;;15.52;90.89;101296.41;5114274;28;19950;-51
2023/10/11 01:12:22;;;;;;;;;;;;;;;15.46;91.25;101292.84;5113882;28;20312;-50
2023/10/11 01:14:59;;;;;;;;;;;;;;;15.42;91.49;101301.44;5113590;28;20420;-50
2023/10/11 01:17:26;;;;;;;;;;;;;;;15.36;91.83;101293.56;5113863;28;19918;-49
2023/10/11 01:19:51;;;;;;;;;;;;;;;15.31;92.65;101288.28;5114217;28;19990;-51
2023/10/11 01:22:17;;;;;;;;;;;;;;;15.28;92.52;101297.75;5112790;28;20442;-50
2023/10/11 01:24:44;;;;;;;;;;;;;;;15.23;93.50;101289.00;5114273;28;19912;-51
2023/10/11 01:27:13;;;;;;;;;;;;;;;15.19;93.88;101292.41;5114229;28;20399;-51
2023/10/11 01:29:38;;;;;;;;;;;;;;;15.12;94.56;101291.44;5113160;28;19912;-50
2023/10/11 01:32:04;;;;;;;;;;;;;;;15.08;94.68;101290.50;5113847;28;19912;-51
2023/10/11 01:34:30;;;;;;;;;;;;;;;15.05;94.90;101282.63;5113765;28;19918;-51
2023/10/11 01:36:57;;;;;;;;;;;;;;;14.99;95.24;101279.94;5112850;28;19912;-50
2023/10/11 01:39:22;;;;;;;;;;;;;;;14.96;96.05;101288.56;5113653;28;19912;-50
2023/10/11 01:41:54;;;;;;;;;;;;;;;14.93;96.10;101279.81;5113706;28;19911;-49
2023/10/11 01:44:20;;;;;;;;;;;;;;;14.90;96.81;101283.22;5112795;28;19994;-50
2023/10/11 01:46:47;;;;;;;;;;;;;;;14.86;96.80;101277.94;5113899;28;19911;-50
2023/10/11 01:49:12;;;;;;;;;;;;;;;14.83;97.04;101276.16;5113263;28;20015;-47
2023/10/11 01:51:46;;;;;;;;;;;;;;;14.82;97.90;101275.31;5112762;28;19912;-50
2023/10/11 01:54:11;;;;;;;;;;;;;;;14.80;98.06;101269.19;5113489;28;20256;-50
2023/10/11 01:56:38;;;;;;;;;;;;;;;14.78;98.12;101273.50;5113329;28;19969;-50
2023/10/11 01:59:04;;;;;;;;;;;;;;;14.74;98.67;101268.22;5113233;28;19924;-49
2023/10/11 02:01:38;;;;;;;;;;;;;;;14.69;99.26;101262.94;5113118;28;19912;-51
2023/10/11 02:04:04;;;;;;;;;;;;;;;14.67;98.90;101256.84;5112724;28;19911;-50
2023/10/11 02:06:31;;;;;;;;;;;;;;;14.68;99.07;101256.00;5113366;28;19918;-50
2023/10/11 02:08:57;;;;;;;;;;;;;;;14.68;99.19;101244.75;5113778;28;19958;-49
2023/10/11 02:11:29;;;;;;;;;;;;;;;14.64;98.74;101246.41;5112500;28;19916;-50
2023/10/11 02:13:57;;;;;;;;;;;;;;;14.59;99.52;101243.69;5113592;28;19916;-50
2023/10/11 02:16:22;;;;;;;;;;;;;;;14.56;100.00;101240.16;5113166;28;19939;-48
2023/10/11 02:18:51;;;;;;;;;;;;;;;14.51;100.00;101234.00;5112483;28;20351;-50
2023/10/11 02:21:17;;;;;;;;;;;;;;;14.51;100.00;101234.00;5113206;28;19911;-51
2023/10/11 02:23:42;;;;;;;;;;;;;;;14.47;100.00;101231.38;5113616;28;19930;-47
2023/10/11 02:26:12;;;;;;;;;;;;;;;14.46;100.00;101237.41;5112886;28;19908;-49
2023/10/11 02:28:39;;;;;;;;;;;;;;;14.45;100.00;101239.97;5113317;28;19912;-48
2023/10/11 02:31:04;;;;;;;;;;;;;;;14.41;100.00;101227.75;5113204;28;19908;-51
2023/10/11 02:33:32;;;;;;;;;;;;;;;14.39;100.00;101230.31;5114125;28;19918;-50
2023/10/11 02:35:58;;;;;;;;;;;;;;;14.33;100.00;101228.50;5117520;28;19912;-50
2023/10/11 02:38:23;;;;;;;;;;;;;;;14.30;100.00;101236.19;5116766;28;19911;-51
2023/10/11 02:40:55;;;;;;;;;;;;;;;14.28;100.00;101237.00;5116365;28;19911;-51
2023/10/11 02:43:28;;;;;;;;;;;;;;;14.26;100.00;101229.19;5116939;28;20416;-51
2023/10/11 02:45:53;;;;;;;;;;;;;;;14.24;100.00;101236.09;5116185;28;19911;-50
2023/10/11 02:48:19;;;;;;;;;;;;;;;14.21;100.00;101229.97;5116738;28;19919;-50
2023/10/11 02:50:48;;;;;;;;;;;;;;;14.16;100.00;101235.94;5116932;28;19908;-50
2023/10/11 02:53:23;;;;;;;;;;;;;;;14.15;100.00;101231.59;5115775;28;19915;-50
2023/10/11 02:55:59;;;;;;;;;;;;;;;14.12;100.00;101228.91;5116823;28;19939;-50
2023/10/11 02:58:29;;;;;;;;;;;;;;;14.10;100.00;101235.78;5116213;28;20094;-49
2023/10/11 03:01:05;;;;;;;;;;;;;;;14.06;100.00;101226.22;5116170;28;19911;-50
2023/10/11 03:03:30;;;;;;;;;;;;;;;14.03;100.00;101228.72;5116492;28;19922;-51
2023/10/11 03:05:55;;;;;;;;;;;;;;;14.01;100.00;101217.47;5116752;28;19994;-49
2023/10/11 03:08:21;;;;;;;;;;;;;;;14.00;100.00;101220.88;5115482;28;19912;-47
2023/10/11 03:10:53;;;;;;;;;;;;;;;13.97;100.00;101215.66;5116518;28;19915;-50
2023/10/11 03:13:23;;;;;;;;;;;;;;;13.95;100.00;101217.31;5116407;28;19964;-51
2023/10/11 03:15:54;;;;;;;;;;;;;;;13.94;100.00;101210.38;5115871;28;19947;-50
2023/10/11 03:18:20;;;;;;;;;;;;;;;13.94;100.00;101206.09;5116127;28;19911;-50
2023/10/11 03:20:45;;;;;;;;;;;;;;;13.94;100.00;101207.78;5116369;28;19919;-50
2023/10/11 03:23:11;;;;;;;;;;;;;;;13.91;100.00;101210.34;5115090;28;19908;-49
2023/10/11 03:25:38;;;;;;;;;;;;;;;13.88;100.00;101210.25;5116408;28;19916;-50
2023/10/11 03:28:03;;;;;;;;;;;;;;;13.82;100.00;101206.69;5116057;28;19973;-50
2023/10/11 03:30:34;;;;;;;;;;;;;;;13.82;100.00;101208.41;5115624;28;19939;-50
2023/10/11 03:33:01;;;;;;;;;;;;;;;13.79;100.00;101211.81;5116239;28;19911;-48
2023/10/11 03:35:27;;;;;;;;;;;;;;;13.78;100.00;101209.19;5115041;28;20668;-48
2023/10/11 03:37:58;;;;;;;;;;;;;;;13.77;100.00;101205.69;5115807;28;19923;-51
2023/10/11 03:40:54;;;;;;;;;;;;;;;13.76;100.00;101206.56;5115925;28;19911;-51
2023/10/11 03:43:19;;;;;;;;;;;;;;;13.76;100.00;101213.44;5114811;28;19951;-49
2023/10/11 03:45:49;;;;;;;;;;;;;;;13.73;100.00;101210.81;5115807;28;19961;-50
2023/10/11 03:48:21;;;;;;;;;;;;;;;13.69;100.00;101206.41;5115419;28;19915;-49
2023/10/11 03:50:51;;;;;;;;;;;;;;;13.65;100.00;101197.69;5114790;28;20378;-51
2023/10/11 03:53:17;;;;;;;;;;;;;;;13.63;100.00;101205.41;5115537;28;19912;-51
2023/10/11 03:55:45;;;;;;;;;;;;;;;13.62;100.00;101198.47;5115628;28;19923;-50
2023/10/11 03:58:15;;;;;;;;;;;;;;;13.61;100.00;101206.22;5114334;28;19967;-47
2023/10/11 04:00:47;;;;;;;;;;;;;;;13.58;100.00;101206.13;5115545;28;19939;-50
2023/10/11 04:03:14;;;;;;;;;;;;;;;13.56;100.00;101203.50;5114956;28;20290;-47
2023/10/11 04:05:40;;;;;;;;;;;;;;;13.57;100.00;101199.19;5115607;28;19912;-49
2023/10/11 04:08:05;;;;;;;;;;;;;;;13.59;100.00;101192.34;5115491;28;20336;-49
2023/10/11 04:10:38;;;;;;;;;;;;;;;13.57;100.00;101194.91;5114234;28;19916;-50
2023/10/11 04:13:09;;;;;;;;;;;;;;;13.58;100.00;101199.25;5115303;28;19912;-50
2023/10/11 04:15:35;;;;;;;;;;;;;;;13.57;100.00;101184.56;5115090;28;19923;-50
2023/10/11 04:18:13;;;;;;;;;;;;;;;13.58;100.00;101178.53;5114303;28;20256;-50
2023/10/11 04:20:40;;;;;;;;;;;;;;;13.59;100.00;101172.50;5115305;28;19918;-51
2023/10/11 04:23:14;;;;;;;;;;;;;;;13.58;100.00;101169.88;5115257;28;19912;-49
2023/10/11 04:25:39;;;;;;;;;;;;;;;13.56;100.00;101181.94;5114192;28;20363;-50
2023/10/11 04:28:05;;;;;;;;;;;;;;;13.54;100.00;101173.25;5115141;28;19918;-50
2023/10/11 04:30:46;;;;;;;;;;;;;;;13.51;100.00;101179.22;5114592;28;20569;-50
2023/10/11 04:33:13;;;;;;;;;;;;;;;13.50;100.00;101162.84;5113927;28;19911;-49
2023/10/11 04:35:42;;;;;;;;;;;;;;;13.53;100.00;101166.31;5114870;28;20324;-50
2023/10/11 04:38:10;;;;;;;;;;;;;;;13.52;100.00;101172.31;5114674;28;20374;-50
2023/10/11 04:43:18;;;;;;;;;;;;;;;13.50;100.00;101178.38;5114867;28;20268;-50
2023/10/11 04:45:45;;;;;;;;;;;;;;;13.52;100.00;101169.72;5113878;28;20375;-50
2023/10/11 04:49:16;;;;;;;;;;;;;;;13.52;100.00;101180.09;5114278;28;20366;-50
2023/10/11 04:59:05;;;;;;;;;;;;;;;13.54;100.00;101196.56;5114269;28;20295;-50
2023/10/11 05:01:45;;;;;;;;;;;;;;;13.56;100.00;101192.28;5113406;28;19961;-51
2023/10/11 05:04:13;;;;;;;;;;;;;;;13.57;100.00;101196.59;5114111;28;19918;-46
2023/10/11 05:06:41;;;;;;;;;;;;;;;13.55;100.00;101188.81;5113589;28;19912;-50
2023/10/11 05:11:43;;;;;;;;;;;;;;;13.57;100.00;101186.25;5114251;28;20002;-51
2023/10/11 05:14:28;;;;;;;;;;;;;;;13.58;100.00;101185.41;5113532;28;19994;-50
2023/10/11 05:16:59;;;;;;;;;;;;;;;13.58;100.00;101182.81;5114204;28;19918;-50
2023/10/11 05:19:25;;;;;;;;;;;;;;;13.60;100.00;101183.75;5113836;28;19912;-50
2023/10/11 05:21:53;;;;;;;;;;;;;;;13.58;100.00;101200.97;5113165;28;19933;-50
2023/10/11 05:24:33;;;;;;;;;;;;;;;13.56;100.00;101205.25;5113664;28;19918;-50
2023/10/11 05:27:12;;;;;;;;;;;;;;;13.54;100.00;101197.41;5114050;28;19918;-50
2023/10/11 05:30:05;;;;;;;;;;;;;;;13.54;100.00;101214.69;5113208;28;19911;-50
2023/10/11 05:32:27;;;;;;;;;;;;;;;13.52;100.00;101209.47;5113451;28;20002;-50
2023/10/11 05:51:33;;;;;;;;;;;;;;;13.59;100.00;101202.72;5113561;28;19960;-50
2023/10/11 05:53:59;;;;;;;;;;;;;;;13.59;100.00;101189.75;5113635;28;19916;-51
2023/10/11 05:56:25;;;;;;;;;;;;;;;13.58;100.00;101200.97;5112479;28;19960;-50
2023/10/11 05:58:51;;;;;;;;;;;;;;;13.58;100.00;101211.31;5113339;28;19966;-50
2023/10/11 06:01:19;;;;;;;;;;;;;;;13.56;100.00;101208.69;5113319;28;19957;-49
2023/10/11 06:03:44;;;;;;;;;;;;;;;13.55;100.00;101219.88;5112445;28;20427;-51
2023/10/11 06:06:32;;;;;;;;;;;;;;;13.55;100.00;101221.63;5113311;28;19957;-50
2023/10/11 06:08:58;;;;;;;;;;;;;;;13.53;100.00;101203.47;5116494;28;19955;-50
2023/10/11 06:11:29;;;;;;;;;;;;;;;13.55;100.00;101211.25;5116481;28;19955;-49
2023/10/11 06:13:57;;;;;;;;;;;;;;;13.55;100.00;101204.34;5117544;28;19919;-50
2023/10/11 06:16:23;;;;;;;;;;;;;;;13.58;100.00;101206.13;5117130;28;19966;-49
2023/10/11 06:19:03;;;;;;;;;;;;;;;13.60;100.00;101201.88;5116718;28;19966;-50
2023/10/11 06:21:32;;;;;;;;;;;;;;;13.62;100.00;101202.75;5117142;28;20442;-51
2023/10/11 06:23:58;;;;;;;;;;;;;;;13.63;100.00;101205.41;5116563;28;20416;-50
2023/10/11 06:27:11;;;;;;;;;;;;;;;13.65;100.00;101203.72;5117000;28;19920;-50
2023/10/11 06:29:18;;;;;;;;;;;;;;;13.68;100.00;101192.56;5113834;28;19919;-50
2023/10/11 06:31:46;;;;;;;;;;;;;;;13.70;100.00;101198.66;5116537;28;20030;-50
2023/10/11 06:34:25;;;;;;;;;;;;;;;13.74;100.00;101197.88;5117089;28;19913;-50
2023/10/11 06:36:51;;;;;;;;;;;;;;;13.76;100.00;101198.81;5117117;28;19964;-49
2023/10/11 06:42:12;;;;;;;;;;;;;;;13.81;100.00;101198.88;5117128;28;20332;-49
2023/10/11 06:44:41;;;;;;;;;;;;;;;13.86;100.00;101211.94;5116995;28;19919;-49
2023/10/11 06:47:06;;;;;;;;;;;;;;;13.89;100.00;101212.00;5116277;28;19911;-50
2023/10/11 06:49:40;;;;;;;;;;;;;;;13.91;100.00;101207.75;5116682;28;19933;-50
2023/10/11 06:52:11;;;;;;;;;;;;;;;13.92;100.00;101217.28;5116320;28;19994;-50
2023/10/11 06:54:36;;;;;;;;;;;;;;;13.97;100.00;101210.47;5116770;28;20342;-51
2023/10/11 06:57:02;;;;;;;;;;;;;;;14.00;100.00;101216.56;5116681;28;19911;-50
2023/10/11 06:59:28;;;;;;;;;;;;;;;14.04;100.00;101220.09;5115519;28;19927;-51
2023/10/11 07:01:53;;;;;;;;;;;;;;;14.08;100.00;101219.31;5116644;28;19923;-48
2023/10/11 07:04:18;;;;;;;;;;;;;;;14.14;100.00;101210.81;5116218;28;19951;-50
2023/10/11 07:06:46;;;;;;;;;;;;;;;14.19;100.00;101218.69;5115948;28;19957;-49
2023/10/11 07:09:19;;;;;;;;;;;;;;;14.23;100.00;101218.78;5116022;28;19973;-49
2023/10/11 07:11:52;;;;;;;;;;;;;;;14.29;100.00;101229.28;5116465;28;19911;-50
2023/10/11 07:14:18;;;;;;;;;;;;;;;14.36;100.00;101234.56;5115332;28;20396;-51
2023/10/11 07:16:46;;;;;;;;;;;;;;;14.42;100.00;101240.78;5116397;28;20385;-51
2023/10/11 07:19:15;;;;;;;;;;;;;;;14.49;100.00;101253.00;5115822;28;19919;-50
2023/10/11 07:21:53;;;;;;;;;;;;;;;14.59;100.00;101255.78;5115704;28;19912;-50
2023/10/11 07:24:40;;;;;;;;;;;;;;;14.70;100.00;101262.09;5116117;28;19918;-49
2023/10/11 07:27:08;;;;;;;;;;;;;;;14.81;100.00;101263.16;5116101;28;19973;-51
2023/10/11 07:29:37;;;;;;;;;;;;;;;14.88;100.00;101264.16;5114994;28;19923;-49
2023/10/11 07:32:03;;;;;;;;;;;;;;;14.95;100.00;101267.72;5116174;28;19911;-51
2023/10/11 07:34:29;;;;;;;;;;;;;;;15.00;100.00;101263.50;5115001;28;19912;-49
2023/10/11 07:36:55;;;;;;;;;;;;;;;15.08;100.00;101267.13;5115856;28;19912;-50
2023/10/11 07:39:25;;;;;;;;;;;;;;;15.17;100.00;101269.00;5115522;28;19912;-50
2023/10/11 07:42:08;;;;;;;;;;;;;;;15.26;100.00;101269.16;5114982;28;19912;-51
2023/10/11 07:44:39;;;;;;;;;;;;;;;15.35;100.00;101255.47;5115655;28;19916;-49
2023/10/11 07:47:08;;;;;;;;;;;;;;;15.44;100.00;101254.72;5115855;28;19912;-49
2023/10/11 07:49:39;;;;;;;;;;;;;;;15.53;100.00;101254.00;5114515;28;19916;-50
2023/10/11 07:52:08;;;;;;;;;;;;;;;15.61;100.00;101253.28;5115536;28;19939;-51
2023/10/11 07:54:35;;;;;;;;;;;;;;;15.72;100.00;101256.03;5115281;28;19978;-50
2023/10/11 07:57:01;;;;;;;;;;;;;;;15.87;100.00;101260.63;5114879;28;19919;-50
2023/10/11 07:59:27;;;;;;;;;;;;;;;15.96;100.00;101258.13;5114988;28;20298;-50
2023/10/11 08:01:56;;;;;;;;;;;;;;;16.10;100.00;101268.72;5115449;28;19961;-50
2023/10/11 08:04:22;;;;;;;;;;;;;;;16.26;100.00;101272.41;5114239;28;19918;-50
2023/10/11 08:06:50;;;;;;;;;;;;;;;16.38;100.00;101266.47;5115553;28;20017;-49
2023/10/11 08:09:19;;;;;;;;;;;;;;;16.45;100.00;101257.03;5115264;28;20000;-50
2023/10/11 08:11:56;;;;;;;;;;;;;;;16.44;100.00;101263.94;5114593;28;19919;-50
2023/10/11 08:14:22;;;;;;;;;;;;;;;16.37;100.00;101254.34;5114998;28;19911;-49
2023/10/11 08:16:50;;;;;;;;;;;;;;;16.34;100.00;101261.22;5114190;28;20320;-49
2023/10/11 08:19:16;;;;;;;;;;;;;;;16.32;100.00;101261.22;5114551;28;20293;-51
2023/10/11 08:21:54;;;;;;;;;;;;;;;16.30;100.00;101268.13;5115185;28;20402;-50
2023/10/11 08:24:24;;;;;;;;;;;;;;;16.24;100.00;101252.44;5113953;28;19919;-49
2023/10/11 08:26:52;;;;;;;;;;;;;;;16.21;100.00;101265.41;5115063;28;20013;-51
2023/10/11 08:29:27;;;;;;;;;;;;;;;16.20;100.00;101274.91;5114621;28;19911;-47
2023/10/11 08:31:56;;;;;;;;;;;;;;;16.23;100.00;101287.09;5113367;28;19912;-49
2023/10/11 08:34:21;;;;;;;;;;;;;;;16.31;100.00;101282.88;5114616;28;19911;-47
2023/10/11 08:36:48;;;;;;;;;;;;;;;16.41;100.00;101282.13;5114812;28;19911;-48
2023/10/11 08:39:14;;;;;;;;;;;;;;;16.46;100.00;101272.66;5113670;28;19929;-50
2023/10/11 08:41:43;;;;;;;;;;;;;;;16.55;100.00;101279.72;5114668;28;19994;-50
2023/10/11 08:44:15;;;;;;;;;;;;;;;16.67;100.00;101272.88;5114532;28;19912;-50
2023/10/11 08:46:45;;;;;;;;;;;;;;;16.79;100.00;101284.28;5113898;28;19919;-49
2023/10/11 08:49:11;;;;;;;;;;;;;;;16.94;100.00;101287.97;5114382;28;19911;-49
2023/10/11 08:51:40;;;;;;;;;;;;;;;17.14;100.00;101289.91;5113862;28;20365;-47
2023/10/11 08:54:11;;;;;;;;;;;;;;;17.39;100.00;101285.78;5114262;28;19912;-50
2023/10/11 08:56:37;;;;;;;;;;;;;;;17.56;100.00;101278.97;5114440;28;20390;-51
2023/10/11 08:59:02;;;;;;;;;;;;;;;17.52;100.00;101286.75;5113274;28;19916;-51
2023/10/11 09:01:28;;;;;;;;;;;;;;;17.46;100.00;101304.97;5114075;28;20334;-50
2023/10/11 09:04:03;;;;;;;;;;;;;;;17.40;100.00;101308.38;5114306;28;20275;-50
2023/10/11 09:06:31;;;;;;;;;;;;;;;17.34;100.00;101306.59;5113046;28;19945;-50
2023/10/11 09:09:00;;;;;;;;;;;;;;;17.35;100.00;101300.53;5114090;28;19912;-51
2023/10/11 09:11:32;;;;;;;;;;;;;;;17.44;100.00;101311.03;5113739;28;19911;-50
2023/10/11 09:14:11;;;;;;;;;;;;;;;17.42;100.00;101312.72;5113725;28;19916;-51
2023/10/11 09:16:36;;;;;;;;;;;;;;;17.36;100.00;101307.47;5114109;28;20298;-51
2023/10/11 09:19:05;;;;;;;;;;;;;;;17.33;100.00;101297.03;5113921;28;20377;-49
2023/10/11 09:21:35;;;;;;;;;;;;;;;17.31;100.00;101296.13;5112761;28;20819;-50
2023/10/11 09:24:01;;;;;;;;;;;;;;;17.29;100.00;101297.84;5114199;28;19933;-50
2023/10/11 09:26:37;;;;;;;;;;;;;;;17.31;100.00;101303.94;5113731;28;20286;-50
2023/10/11 09:29:03;;;;;;;;;;;;;;;17.34;100.00;101303.97;5113279;28;19919;-51
2023/10/11 09:31:31;;;;;;;;;;;;;;;17.26;100.00;101311.72;5113565;28;19951;-48
2023/10/11 09:34:00;;;;;;;;;;;;;;;17.22;100.00;101309.97;5113023;28;19911;-50
2023/10/11 09:36:26;;;;;;;;;;;;;;;17.22;100.00;101304.75;5113593;28;19908;-48
2023/10/11 09:38:54;;;;;;;;;;;;;;;17.28;100.00;101303.91;5113838;28;19911;-51
2023/10/11 09:41:28;;;;;;;;;;;;;;;17.29;100.00;101316.09;5112448;28;20347;-50
2023/10/11 09:43:59;;;;;;;;;;;;;;;17.29;100.00;101313.50;5113795;28;19937;-50
2023/10/11 09:46:25;;;;;;;;;;;;;;;17.27;100.00;101313.47;5113503;28;20317;-50
2023/10/11 09:48:54;;;;;;;;;;;;;;;17.19;100.00;101309.91;5112822;28;19919;-49
2023/10/11 09:51:24;;;;;;;;;;;;;;;17.11;100.00;101307.22;5113477;28;19911;-49
2023/10/11 09:53:50;;;;;;;;;;;;;;;17.10;100.00;101310.69;5113754;28;19919;-48
2023/10/11 09:56:24;;;;;;;;;;;;;;;17.10;100.00;101309.81;5112485;28;19912;-51
2023/10/11 09:59:00;;;;;;;;;;;;;;;17.10;100.00;101308.09;5113126;28;20363;-50
2023/10/11 10:01:49;;;;;;;;;;;;;;;17.10;100.00;101315.91;5113432;28;19919;-50
2023/10/11 10:04:14;;;;;;;;;;;;;;;17.14;100.00;101321.16;5112104;28;19923;-48
2023/10/11 10:06:59;;;;;;;;;;;;;;;17.14;100.00;101326.38;5113492;28;19911;-48
2023/10/11 10:09:24;;;;;;;;;;;;;;;17.15;100.00;101317.69;5112175;28;19918;-48
2023/10/11 10:12:11;;;;;;;;;;;;;;;17.11;100.00;101328.06;5113696;28;19911;-50
2023/10/11 10:14:38;;;;;;;;;;;;;;;17.09;100.00;101324.59;5113544;28;20386;-51
2023/10/11 10:17:13;;;;;;;;;;;;;;;17.12;100.00;101321.16;5112589;28;19915;-50
2023/10/11 10:19:46;;;;;;;;;;;;;;;17.16;100.00;101332.44;5113294;28;19916;-51
2023/10/11 10:22:17;;;;;;;;;;;;;;;17.18;100.00;101322.94;5112946;28;19919;-50
2023/10/11 10:24:46;;;;;;;;;;;;;;;17.16;100.00;101316.81;5112656;28;19912;-50
2023/10/11 10:27:33;;;;;;;;;;;;;;;17.14;100.00;101308.13;5112933;28;20380;-50
2023/10/11 10:29:59;;;;;;;;;;;;;;;17.09;100.00;101306.38;5113290;28;20019;-51
2023/10/11 10:32:25;;;;;;;;;;;;;;;17.11;100.00;101309.84;5112224;28;19915;-51
2023/10/11 10:35:13;;;;;;;;;;;;;;;17.16;100.00;101319.41;5094880;28;20006;-50
2023/10/11 10:37:47;;;;;;;;;;;;;;;17.22;100.00;101309.06;5112103;28;20023;-49
2023/10/11 10:40:25;;;;;;;;;;;;;;;17.26;100.00;101316.03;5113025;28;19965;-51
2023/10/11 10:43:21;;;;;;;;;;;;;;;17.30;100.00;101310.03;5113178;28;20336;-52
2023/10/11 10:45:48;;;;;;;;;;;;;;;17.28;100.00;101314.34;5112526;28;19935;-50
2023/10/11 10:48:14;;;;;;;;;;;;;;;17.29;100.00;101323.91;5112845;28;20315;-51
2023/10/11 10:50:46;;;;;;;;;;;;;;;17.30;100.00;101323.06;5113051;28;19912;-47
2023/10/11 10:53:14;;;;;;;;;;;;;;;17.35;100.00;101320.47;5111946;28;20370;-47
2023/10/11 10:55:42;;;;;;;;;;;;;;;17.35;100.00;101321.38;5116802;28;20007;-51
2023/10/11 10:58:07;;;;;;;;;;;;;;;17.35;100.00;101318.75;5116748;28;19968;-50
2023/10/11 11:00:34;;;;;;;;;;;;;;;17.35;100.00;101325.69;5115858;28;19916;-51
2023/10/11 11:03:00;;;;;;;;;;;;;;;17.33;100.00;101322.22;5116719;28;19957;-51
2023/10/11 11:05:29;;;;;;;;;;;;;;;17.26;100.00;101324.75;5115606;28;20370;-51
2023/10/11 11:08:15;;;;;;;;;;;;;;;17.21;100.00;101318.63;5116586;28;19919;-51
2023/10/11 11:10:54;;;;;;;;;;;;;;;17.21;100.00;101312.53;5116742;28;19912;-51
2023/10/11 11:13:19;;;;;;;;;;;;;;;17.21;100.00;101312.53;5115555;28;19918;-48
2023/10/11 11:15:44;;;;;;;;;;;;;;;17.18;100.00;101296.88;5116337;28;19912;-50
2023/10/11 11:18:11;;;;;;;;;;;;;;;17.14;100.00;101295.97;5116236;28;19911;-49
2023/10/11 11:20:40;;;;;;;;;;;;;;;17.18;100.00;101291.66;5115536;28;20288;-47
2023/10/11 11:23:06;;;;;;;;;;;;;;;17.23;100.00;101301.25;5116483;28;19907;-49
2023/10/11 11:25:34;;;;;;;;;;;;;;;17.27;100.00;101304.78;5116031;28;20367;-50
2023/10/11 11:28:02;;;;;;;;;;;;;;;17.27;100.00;101296.97;5115491;28;19907;-49
2023/10/11 11:30:37;;;;;;;;;;;;;;;17.26;100.00;101290.88;5115821;28;20422;-50
2023/10/11 11:33:13;;;;;;;;;;;;;;;17.27;100.00;101281.31;5116362;28;19911;-49
2023/10/11 11:35:50;;;;;;;;;;;;;;;17.24;100.00;101271.75;5115418;28;19998;-49
2023/10/11 11:38:22;;;;;;;;;;;;;;;17.21;100.00;101273.44;5115824;28;19912;-50
2023/10/11 11:40:47;;;;;;;;;;;;;;;17.22;100.00;101267.38;5115097;28;20345;-51
2023/10/11 11:43:17;;;;;;;;;;;;;;;17.22;100.00;101270.00;5115462;28;20411;-51
2023/10/11 11:45:43;;;;;;;;;;;;;;;17.26;100.00;101269.16;5115753;28;20319;-51
2023/10/11 11:48:09;;;;;;;;;;;;;;;17.30;100.00;101262.25;5115107;28;19912;-50
2023/10/11 11:50:34;;;;;;;;;;;;;;;17.31;100.00;101262.25;5115436;28;19998;-51
2023/10/11 11:53:00;;;;;;;;;;;;;;;17.36;100.00;101252.75;5115807;28;19912;-51
2023/10/11 11:55:26;;;;;;;;;;;;;;;17.36;100.00;101252.75;5114737;28;19915;-48
2023/10/11 11:57:51;;;;;;;;;;;;;;;17.38;100.00;101231.94;5115341;28;19923;-49
2023/10/11 12:02:48;;;;;;;;;;;;;;;17.42;100.00;101224.13;5115000;28;20367;-51
2023/10/11 12:05:13;;;;;;;;;;;;;;;17.45;100.00;101215.47;5113994;28;19923;-49
2023/10/11 12:07:39;;;;;;;;;;;;;;;17.57;100.00;101212.06;5115472;28;20002;-51
2023/10/11 12:10:23;;;;;;;;;;;;;;;17.72;100.00;101212.16;5114543;28;19912;-50
2023/10/11 12:12:50;;;;;;;;;;;;;;;17.86;100.00;101204.44;5115272;28;20303;-50
2023/10/11 12:15:16;;;;;;;;;;;;;;;17.96;100.00;101197.56;5115133;28;19919;-50
2023/10/11 12:17:42;;;;;;;;;;;;;;;18.00;100.00;101220.19;5114534;28;19911;-50
2023/10/11 12:20:12;;;;;;;;;;;;;;;18.00;100.00;101217.56;5115141;28;19984;-50
2023/10/11 12:22:42;;;;;;;;;;;;;;;18.01;100.00;101214.09;5114242;28;20282;-49
2023/10/11 12:25:07;;;;;;;;;;;;;;;18.04;100.00;101208.88;5115066;28;19919;-50
2023/10/11 12:27:33;;;;;;;;;;;;;;;18.11;100.00;101207.19;5114935;28;19911;-50
2023/10/11 12:29:59;;;;;;;;;;;;;;;18.32;100.00;101209.00;5114205;28;19915;-51
2023/10/11 12:32:24;;;;;;;;;;;;;;;18.42;100.00;101205.56;5114629;28;19959;-48
2023/10/11 12:34:51;;;;;;;;;;;;;;;18.31;100.00;101207.25;5114817;28;19965;-49
2023/10/11 12:37:16;;;;;;;;;;;;;;;18.23;100.00;101209.84;5113778;28;19957;-50
2023/10/11 12:39:41;;;;;;;;;;;;;;;18.23;100.00;101211.56;5114671;28;19911;-50
2023/10/11 12:42:11;;;;;;;;;;;;;;;18.34;100.00;101203.78;5114926;28;19912;-51
2023/10/11 12:44:40;;;;;;;;;;;;;;;18.57;100.00;101202.09;5113771;28;19923;-51
2023/10/11 12:47:10;;;;;;;;;;;;;;;18.78;100.00;101212.59;5114602;28;19918;-51
2023/10/11 12:49:35;;;;;;;;;;;;;;;19.06;100.00;101211.78;5114320;28;19919;-50
2023/10/11 12:52:05;;;;;;;;;;;;;;;19.38;100.00;101218.72;5113644;28;20279;-52
2023/10/11 12:54:31;;;;;;;;;;;;;;;19.38;100.00;101216.13;5114241;28;19961;-51
2023/10/11 12:56:56;;;;;;;;;;;;;;;19.21;100.00;101210.91;5114548;28;19939;-51
2023/10/11 12:59:22;;;;;;;;;;;;;;;19.07;100.00;101205.69;5113124;28;20386;-51
2023/10/11 13:01:52;;;;;;;;;;;;;;;19.10;100.00;101201.34;5114616;28;20378;-51
2023/10/11 13:04:17;;;;;;;;;;;;;;;19.06;100.00;101192.63;5113884;28;19907;-51
2023/10/11 13:06:49;;;;;;;;;;;;;;;18.98;100.00;101189.13;5113431;28;19916;-51
2023/10/11 13:09:15;;;;;;;;;;;;;;;18.90;100.00;101187.41;5114207;28;19919;-50
2023/10/11 13:11:44;;;;;;;;;;;;;;;18.87;100.00;101181.25;5114309;28;19912;-51
2023/10/11 13:14:10;;;;;;;;;;;;;;;18.89;100.00;101189.97;5113333;28;19911;-52
2023/10/11 13:16:38;;;;;;;;;;;;;;;18.86;100.00;101192.56;5113732;28;20043;-51